createdAt,value
2022-10-20T00:01:23.497Z,68.70
2022-10-20T00:03:51.229Z,68.90
2022-10-20T00:06:25.193Z,69.00
2022-10-20T00:08:53.971Z,69.00
2022-10-20T00:11:23.233Z,69.40
2022-10-20T00:13:53.227Z,69.00
2022-10-20T00:16:22.410Z,69.10
2022-10-20T00:18:49.442Z,69.30
2022-10-20T00:21:22.988Z,69.20
2022-10-20T00:23:50.206Z,69.30
2022-10-20T00:26:26.489Z,69.20
2022-10-20T00:28:54.749Z,69.30
2022-10-20T00:31:24.325Z,69.30
2022-10-20T00:33:51.733Z,69.50
2022-10-20T00:36:20.930Z,69.50
2022-10-20T00:38:48.374Z,69.60
2022-10-20T00:41:18.872Z,69.60
2022-10-20T00:43:51.718Z,69.70
2022-10-20T00:46:33.360Z,69.80
2022-10-20T00:49:11.313Z,70.10
2022-10-20T00:51:38.429Z,69.80
2022-10-20T00:54:15.822Z,69.80
2022-10-20T00:56:47.852Z,70.10
2022-10-20T00:59:19.625Z,70.00
2022-10-20T01:01:46.660Z,70.20
2022-10-20T01:04:14.936Z,70.10
2022-10-20T01:06:41.646Z,70.90
2022-10-20T01:09:09.165Z,70.20
2022-10-20T01:12:01.552Z,70.30
2022-10-20T01:15:08.247Z,70.60
2022-10-20T01:18:05.740Z,70.60
2022-10-20T01:20:51.675Z,70.60
2022-10-20T01:23:49.721Z,70.40
2022-10-20T01:27:00.090Z,70.60
2022-10-20T01:29:43.011Z,70.90
2022-10-20T01:32:51.346Z,70.70
2022-10-20T01:35:42.410Z,70.90
2022-10-20T01:38:27.834Z,70.80
2022-10-20T01:41:14.371Z,71.00
2022-10-20T01:43:45.862Z,71.10
2022-10-20T01:46:17.085Z,70.90
2022-10-20T01:48:46.193Z,71.00
2022-10-20T01:51:13.165Z,70.60
2022-10-20T01:53:40.105Z,71.00
2022-10-20T01:56:16.305Z,71.10
2022-10-20T01:59:20.172Z,71.30
2022-10-20T02:02:22.618Z,71.70
2022-10-20T02:05:29.014Z,71.60
2022-10-20T02:08:11.504Z,71.50
2022-10-20T02:11:04.490Z,71.40
2022-10-20T02:13:35.916Z,71.90
2022-10-20T02:16:12.679Z,71.00
2022-10-20T02:18:43.903Z,71.50
2022-10-20T02:21:11.509Z,71.60
2022-10-20T02:23:42.233Z,71.40
2022-10-20T02:26:16.078Z,71.70
2022-10-20T02:28:49.681Z,71.80
2022-10-20T02:31:18.825Z,71.80
2022-10-20T02:33:47.378Z,71.70
2022-10-20T02:36:19.826Z,71.70
2022-10-20T02:38:47.605Z,71.80
2022-10-20T02:41:14.561Z,71.80
2022-10-20T02:43:41.325Z,71.80
2022-10-20T02:46:08.319Z,71.80
2022-10-20T02:48:35.543Z,72.00
2022-10-20T02:51:02.315Z,72.00
2022-10-20T02:53:29.029Z,72.00
2022-10-20T02:55:55.802Z,72.20
2022-10-20T02:58:22.635Z,72.10
2022-10-20T03:00:50.837Z,72.10
2022-10-20T03:03:19.088Z,72.40
2022-10-20T03:05:47.540Z,72.50
2022-10-20T03:08:15.449Z,72.30
2022-10-20T03:10:42.796Z,72.40
2022-10-20T03:13:10.855Z,72.50
2022-10-20T03:15:38.286Z,72.50
2022-10-20T03:18:05.084Z,72.50
2022-10-20T03:20:33.171Z,72.80
2022-10-20T03:23:00.193Z,72.80
2022-10-20T03:25:26.936Z,73.50
2022-10-20T03:27:53.674Z,72.80
2022-10-20T03:30:20.414Z,72.80
2022-10-20T03:32:47.155Z,72.90
2022-10-20T03:35:13.950Z,72.90
2022-10-20T03:37:40.878Z,72.90
2022-10-20T03:40:08.643Z,72.80
2022-10-20T03:42:36.573Z,73.00
2022-10-20T03:45:04.335Z,73.10
2022-10-20T03:47:31.191Z,73.00
2022-10-20T03:49:58.024Z,73.00
2022-10-20T03:52:25.215Z,73.00
2022-10-20T03:54:52.001Z,73.10
2022-10-20T03:57:20.815Z,73.20
2022-10-20T03:59:47.604Z,73.30
2022-10-20T04:02:37.171Z,73.30
2022-10-20T04:05:05.225Z,73.60
2022-10-20T04:07:32.212Z,73.30
2022-10-20T04:10:02.098Z,72.90
2022-10-20T04:12:28.977Z,73.30
2022-10-20T04:14:55.993Z,73.50
2022-10-20T04:17:22.814Z,73.50
2022-10-20T04:19:49.659Z,73.50
2022-10-20T04:22:16.965Z,73.60
2022-10-20T04:24:43.727Z,73.70
2022-10-20T04:27:10.550Z,73.70
2022-10-20T04:29:37.614Z,73.80
2022-10-20T04:32:04.796Z,73.80
2022-10-20T04:34:31.506Z,73.90
2022-10-20T04:36:58.506Z,73.90
2022-10-20T04:39:25.551Z,73.80
2022-10-20T04:41:52.341Z,73.80
2022-10-20T04:44:19.294Z,73.90
2022-10-20T04:46:46.100Z,74.00
2022-10-20T04:49:13.089Z,74.20
2022-10-20T04:51:39.844Z,74.20
2022-10-20T04:54:06.598Z,74.20
2022-10-20T04:56:33.336Z,74.20
2022-10-20T04:59:00.268Z,74.10
2022-10-20T05:01:30.066Z,74.20
2022-10-20T05:03:57.481Z,74.30
2022-10-20T05:06:28.562Z,74.30
2022-10-20T05:09:03.070Z,74.40
2022-10-20T05:11:31.572Z,74.70
2022-10-20T05:13:58.297Z,74.50
2022-10-20T05:16:25.319Z,74.50
2022-10-20T05:18:52.328Z,74.70
2022-10-20T05:21:23.659Z,74.70
2022-10-20T05:23:57.430Z,74.90
2022-10-20T05:26:25.285Z,75.00
2022-10-20T05:28:52.873Z,74.80
2022-10-20T05:31:22.631Z,75.00
2022-10-20T05:33:53.649Z,75.10
2022-10-20T05:36:24.505Z,75.10
2022-10-20T05:38:54.031Z,75.10
2022-10-20T05:41:32.260Z,75.10
2022-10-20T05:44:05.051Z,75.20
2022-10-20T05:46:37.932Z,75.10
2022-10-20T05:49:04.792Z,75.10
2022-10-20T05:51:35.594Z,75.20
2022-10-20T05:54:03.745Z,75.10
2022-10-20T05:56:31.622Z,75.10
2022-10-20T05:58:58.578Z,75.30
2022-10-20T06:01:39.385Z,75.30
2022-10-20T06:04:08.645Z,75.50
2022-10-20T06:06:36.176Z,75.40
2022-10-20T06:09:07.980Z,75.40
2022-10-20T06:11:39.213Z,75.60
2022-10-20T06:14:08.561Z,75.30
2022-10-20T06:16:35.852Z,75.30
2022-10-20T06:19:03.406Z,75.30
2022-10-20T06:21:33.543Z,75.40
2022-10-20T06:24:04.659Z,75.40
2022-10-20T06:26:33.782Z,75.40
2022-10-20T06:29:04.276Z,75.50
2022-10-20T06:31:41.017Z,75.20
2022-10-20T06:34:21.261Z,75.40
2022-10-20T06:36:49.550Z,75.70
2022-10-20T06:39:20.711Z,75.40
2022-10-20T06:41:54.003Z,75.60
2022-10-20T06:44:23.979Z,75.70
2022-10-20T06:46:54.790Z,75.60
2022-10-20T06:49:22.231Z,75.60
2022-10-20T06:51:49.558Z,75.50
2022-10-20T06:54:17.479Z,75.50
2022-10-20T06:56:44.437Z,75.50
2022-10-20T06:59:11.405Z,75.60
2022-10-20T07:01:39.913Z,75.50
2022-10-20T07:04:13.221Z,75.70
2022-10-20T07:06:42.876Z,75.60
2022-10-20T07:09:18.475Z,75.90
2022-10-20T07:11:46.366Z,75.80
2022-10-20T07:14:14.473Z,75.90
2022-10-20T07:16:41.513Z,75.90
2022-10-20T07:19:08.251Z,76.00
2022-10-20T07:21:39.142Z,75.90
2022-10-20T07:24:07.853Z,75.90
2022-10-20T07:26:38.706Z,76.00
2022-10-20T07:29:05.759Z,76.00
2022-10-20T07:31:40.015Z,76.00
2022-10-20T07:34:24.407Z,76.20
2022-10-20T07:36:53.691Z,76.20
2022-10-20T07:39:20.741Z,76.30
2022-10-20T07:41:48.308Z,76.30
2022-10-20T07:44:16.131Z,76.30
2022-10-20T07:46:42.967Z,76.40
2022-10-20T07:51:57.057Z,76.30
2022-10-20T07:54:23.794Z,76.30
2022-10-20T07:56:50.685Z,76.20
2022-10-20T07:59:18.588Z,76.10
2022-10-20T08:01:46.202Z,76.30
2022-10-20T08:04:13.018Z,76.30
2022-10-20T08:06:39.808Z,76.20
2022-10-20T08:09:07.303Z,76.20
2022-10-20T08:11:35.209Z,76.10
2022-10-20T08:14:02.078Z,76.90
2022-10-20T08:16:36.401Z,76.20
2022-10-20T08:19:08.986Z,76.30
2022-10-20T08:21:35.740Z,76.30
2022-10-20T08:24:02.844Z,76.30
2022-10-20T08:26:29.789Z,76.20
2022-10-20T08:28:56.575Z,76.20
2022-10-20T08:31:23.674Z,76.20
2022-10-20T08:33:52.943Z,76.10
2022-10-20T08:36:21.237Z,76.00
2022-10-20T08:38:49.018Z,75.80
2022-10-20T08:41:34.479Z,75.70
2022-10-20T08:44:05.991Z,75.50
2022-10-20T08:46:40.468Z,75.40
2022-10-20T08:49:20.032Z,75.20
2022-10-20T08:51:46.975Z,74.80
2022-10-20T08:54:16.295Z,74.60
2022-10-20T08:56:44.354Z,74.50
2022-10-20T08:59:39.851Z,74.20
2022-10-20T09:02:17.645Z,73.60
2022-10-20T09:04:58.454Z,73.40
2022-10-20T09:07:38.355Z,73.20
2022-10-20T09:10:41.267Z,72.80
2022-10-20T09:13:23.555Z,72.50
2022-10-20T09:15:55.855Z,72.40
2022-10-20T09:18:22.847Z,72.40
2022-10-20T09:20:55.769Z,72.20
2022-10-20T09:23:42.239Z,71.90
2022-10-20T09:26:30.829Z,71.70
2022-10-20T09:29:15.417Z,71.50
2022-10-20T09:31:54.049Z,71.60
2022-10-20T09:34:34.204Z,71.40
2022-10-20T09:37:13.804Z,70.80
2022-10-20T09:39:47.680Z,70.80
2022-10-20T09:42:35.459Z,70.90
2022-10-20T09:45:19.273Z,70.50
2022-10-20T09:47:50.693Z,70.60
2022-10-20T09:50:36.700Z,70.70
2022-10-20T09:53:15.659Z,70.40
2022-10-20T09:55:49.253Z,70.60
2022-10-20T09:58:30.300Z,70.40
2022-10-20T10:01:12.096Z,70.20
2022-10-20T10:03:46.468Z,69.80
2022-10-20T10:06:46.132Z,70.00
2022-10-20T10:09:36.516Z,69.60
2022-10-20T10:12:11.534Z,69.70
2022-10-20T10:15:00.633Z,69.80
2022-10-20T10:17:36.371Z,69.20
2022-10-20T10:20:39.598Z,69.10
2022-10-20T10:23:30.397Z,69.10
2022-10-20T10:26:00.637Z,68.60
2022-10-20T10:28:38.830Z,68.80
2022-10-20T10:31:16.343Z,68.30
2022-10-20T10:33:43.320Z,68.10
2022-10-20T10:36:30.746Z,68.10
2022-10-20T10:38:59.205Z,67.40
2022-10-20T10:41:46.061Z,67.80
2022-10-20T10:44:55.063Z,68.00
2022-10-20T10:47:53.174Z,66.50
2022-10-20T10:50:57.009Z,66.50
2022-10-20T10:53:58.179Z,65.90
2022-10-20T10:56:51.593Z,65.80
2022-10-20T10:59:42.980Z,65.40
2022-10-20T11:02:40.264Z,64.60
2022-10-20T11:05:29.170Z,65.00
2022-10-20T11:08:16.677Z,64.20
2022-10-20T11:11:10.847Z,64.80
2022-10-20T11:14:07.862Z,64.70
2022-10-20T11:16:57.945Z,64.10
2022-10-20T11:19:45.808Z,64.40
2022-10-20T11:22:40.507Z,64.30
2022-10-20T11:25:33.035Z,64.30
2022-10-20T11:28:00.517Z,63.70
2022-10-20T11:30:28.098Z,64.10
2022-10-20T11:33:19.221Z,63.90
2022-10-20T11:35:58.614Z,62.50
2022-10-20T11:38:41.902Z,62.20
2022-10-20T11:41:20.078Z,62.50
2022-10-20T11:44:03.454Z,61.90
2022-10-20T11:46:49.857Z,62.10
2022-10-20T11:49:18.118Z,61.10
2022-10-20T11:52:24.103Z,61.30
2022-10-20T11:55:28.267Z,60.30
2022-10-20T11:58:25.300Z,60.90
2022-10-20T12:01:20.713Z,60.90
2022-10-20T12:04:35.250Z,61.10
2022-10-20T12:07:51.526Z,60.50
2022-10-20T12:10:41.853Z,60.60
2022-10-20T12:13:23.609Z,60.50
2022-10-20T12:15:53.647Z,60.90
2022-10-20T12:18:32.150Z,61.30
2022-10-20T12:21:10.935Z,60.70
2022-10-20T12:23:44.111Z,60.40
2022-10-20T12:26:29.482Z,60.60
2022-10-20T12:29:01.417Z,59.90
2022-10-20T12:32:24.627Z,60.70
2022-10-20T12:34:58.501Z,59.80
2022-10-20T12:37:25.125Z,60.30
2022-10-20T12:40:20.480Z,59.50
2022-10-20T12:42:54.375Z,59.80
2022-10-20T12:45:42.904Z,59.80
2022-10-20T12:48:22.393Z,59.30
2022-10-20T12:50:51.879Z,60.20
2022-10-20T12:53:28.496Z,59.60
2022-10-20T12:56:05.701Z,59.30
2022-10-20T12:58:37.180Z,58.90
2022-10-20T13:01:11.785Z,59.00
2022-10-20T13:03:48.975Z,59.00
2022-10-20T13:06:27.402Z,58.80
2022-10-20T13:09:03.877Z,58.30
2022-10-20T13:11:40.468Z,58.10
2022-10-20T13:14:13.415Z,58.30
2022-10-20T13:17:02.822Z,58.40
2022-10-20T13:19:46.372Z,57.90
2022-10-20T13:22:43.055Z,57.70
2022-10-20T13:25:38.898Z,57.50
2022-10-20T13:28:14.643Z,57.30
2022-10-20T13:31:06.516Z,57.70
2022-10-20T13:34:05.967Z,57.40
2022-10-20T13:37:10.013Z,57.50
2022-10-20T13:40:30.920Z,57.70
2022-10-20T13:43:25.813Z,57.30
2022-10-20T13:46:37.316Z,58.20
2022-10-20T13:49:39.641Z,56.80
2022-10-20T13:52:16.157Z,57.20
2022-10-20T13:54:48.325Z,57.40
2022-10-20T13:57:26.141Z,57.70
2022-10-20T14:00:20.921Z,57.50
2022-10-20T14:03:04.562Z,56.70
2022-10-20T14:05:39.117Z,57.20
2022-10-20T14:08:18.847Z,57.50
2022-10-20T14:10:55.577Z,57.30
2022-10-20T14:13:30.031Z,57.70
2022-10-20T14:15:59.869Z,57.60
2022-10-20T14:18:36.129Z,57.80
2022-10-20T14:21:08.533Z,57.70
2022-10-20T14:23:41.828Z,57.70
2022-10-20T14:26:22.679Z,57.80
2022-10-20T14:28:51.615Z,57.60
2022-10-20T14:31:23.427Z,57.60
2022-10-20T14:33:52.664Z,57.70
2022-10-20T14:36:28.660Z,57.40
2022-10-20T14:39:00.727Z,57.60
2022-10-20T14:41:35.864Z,57.50
2022-10-20T14:44:14.714Z,57.30
2022-10-20T14:46:50.410Z,58.00
2022-10-20T14:49:27.920Z,57.70
2022-10-20T14:52:05.730Z,57.60
2022-10-20T14:54:39.017Z,57.30
2022-10-20T14:57:08.713Z,56.80
2022-10-20T15:00:03.829Z,57.00
2022-10-20T15:02:38.573Z,56.50
2022-10-20T15:05:39.846Z,57.10
2022-10-20T15:08:30.864Z,56.40
2022-10-20T15:10:58.926Z,56.40
2022-10-20T15:13:32.437Z,56.90
2022-10-20T15:16:02.602Z,56.50
2022-10-20T15:18:30.550Z,56.70
2022-10-20T15:20:57.606Z,56.80
2022-10-20T15:23:28.093Z,56.80
2022-10-20T15:26:03.059Z,56.70
2022-10-20T15:28:50.473Z,56.90
2022-10-20T15:31:27.663Z,56.60
2022-10-20T15:33:56.856Z,57.50
2022-10-20T15:36:32.999Z,57.00
2022-10-20T15:39:00.682Z,57.00
2022-10-20T15:41:32.069Z,57.30
2022-10-20T15:44:19.298Z,57.30
2022-10-20T15:46:46.580Z,57.30
2022-10-20T15:49:14.063Z,57.60
2022-10-20T15:51:45.499Z,57.70
2022-10-20T15:54:16.309Z,57.50
2022-10-20T15:56:43.631Z,57.50
2022-10-20T15:59:10.487Z,57.70
2022-10-20T16:01:37.852Z,57.80
2022-10-20T16:04:26.165Z,58.00
2022-10-20T16:06:59.014Z,58.00
2022-10-20T16:09:27.300Z,58.30
2022-10-20T16:11:54.280Z,58.40
2022-10-20T16:14:21.214Z,58.50
2022-10-20T16:16:48.199Z,58.50
2022-10-20T16:19:15.000Z,58.50
2022-10-20T16:21:41.786Z,58.60
2022-10-20T16:24:08.859Z,58.80
2022-10-20T16:26:35.701Z,58.80
2022-10-20T16:29:02.458Z,58.90
2022-10-20T16:31:29.491Z,59.10
2022-10-20T16:34:00.235Z,59.20
2022-10-20T16:36:27.087Z,59.50
2022-10-20T16:38:57.515Z,59.50
2022-10-20T16:41:24.620Z,59.50
2022-10-20T16:43:51.519Z,59.80
2022-10-20T16:46:18.356Z,59.90
2022-10-20T16:48:47.835Z,60.00
2022-10-20T16:51:16.736Z,60.20
2022-10-20T16:53:44.331Z,60.30
2022-10-20T16:56:15.285Z,60.40
2022-10-20T16:58:45.060Z,61.20
2022-10-20T17:01:14.117Z,60.60
2022-10-20T17:03:48.037Z,60.70
2022-10-20T17:06:18.318Z,60.80
2022-10-20T17:08:46.060Z,60.80
2022-10-20T17:11:20.549Z,61.10
2022-10-20T17:13:47.424Z,61.20
2022-10-20T17:16:20.080Z,61.10
2022-10-20T17:18:49.438Z,61.40
2022-10-20T17:21:16.507Z,61.50
2022-10-20T17:23:44.438Z,61.70
2022-10-20T17:26:21.372Z,61.80
2022-10-20T17:28:52.135Z,62.10
2022-10-20T17:31:18.926Z,62.10
2022-10-20T17:33:46.559Z,62.20
2022-10-20T17:36:13.821Z,62.30
2022-10-20T17:38:42.233Z,62.30
2022-10-20T17:41:15.513Z,62.60
2022-10-20T17:43:42.486Z,63.20
2022-10-20T17:46:13.807Z,62.40
2022-10-20T17:48:40.941Z,63.60
2022-10-20T17:51:15.087Z,62.80
2022-10-20T17:53:45.546Z,63.00
2022-10-20T17:56:22.630Z,63.00
2022-10-20T17:58:51.910Z,63.00
2022-10-20T18:01:26.315Z,63.00
2022-10-20T18:04:09.066Z,63.30
2022-10-20T18:06:36.598Z,63.40
2022-10-20T18:09:11.425Z,63.40
2022-10-20T18:11:41.431Z,63.60
2022-10-20T18:14:08.215Z,63.70
2022-10-20T18:16:37.939Z,63.60
2022-10-20T18:19:05.778Z,63.80
2022-10-20T18:21:32.868Z,63.70
2022-10-20T18:24:08.011Z,63.80
2022-10-20T18:26:37.134Z,64.00
2022-10-20T18:29:08.502Z,64.00
2022-10-20T18:31:38.824Z,64.20
2022-10-20T18:34:09.460Z,64.30
2022-10-20T18:36:40.456Z,64.30
2022-10-20T18:39:10.750Z,64.40
2022-10-20T18:41:41.035Z,64.50
2022-10-20T18:44:13.860Z,64.50
2022-10-20T18:46:41.557Z,64.60
2022-10-20T18:49:12.070Z,64.50
2022-10-20T18:51:39.129Z,64.80
2022-10-20T18:54:08.602Z,64.60
2022-10-20T18:56:36.486Z,64.80
2022-10-20T18:59:08.645Z,64.90
2022-10-20T19:01:38.996Z,64.90
2022-10-20T19:04:08.427Z,64.80
2022-10-20T19:06:42.228Z,65.00
2022-10-20T19:09:14.462Z,65.10
2022-10-20T19:11:42.096Z,65.20
2022-10-20T19:14:10.194Z,65.10
2022-10-20T19:16:38.341Z,65.20
2022-10-20T19:19:08.023Z,65.20
2022-10-20T19:21:35.754Z,65.30
2022-10-20T19:24:07.549Z,65.30
2022-10-20T19:26:41.968Z,65.30
2022-10-20T19:29:16.182Z,65.40
2022-10-20T19:32:11.607Z,65.30
2022-10-20T19:34:40.931Z,65.30
2022-10-20T19:37:09.510Z,65.30
2022-10-20T19:39:40.916Z,65.30
2022-10-20T19:42:10.262Z,65.40
2022-10-20T19:44:37.934Z,65.60
2022-10-20T19:47:06.243Z,65.60
2022-10-20T19:49:33.209Z,65.70
2022-10-20T19:52:00.544Z,66.40
2022-10-20T19:54:27.596Z,65.70
2022-10-20T19:56:54.419Z,65.80
2022-10-20T19:59:21.888Z,65.90
2022-10-20T20:01:50.129Z,65.90
2022-10-20T20:04:17.046Z,65.90
2022-10-20T20:06:43.969Z,65.90
2022-10-20T20:09:12.199Z,65.80
2022-10-20T20:11:39.232Z,65.80
2022-10-20T20:14:12.029Z,65.90
2022-10-20T20:16:39.438Z,65.90
2022-10-20T20:19:06.727Z,65.90
2022-10-20T20:21:33.610Z,65.90
2022-10-20T20:24:03.857Z,65.90
2022-10-20T20:26:36.568Z,66.00
2022-10-20T20:29:05.582Z,66.00
2022-10-20T20:31:33.470Z,66.00
2022-10-20T20:34:00.312Z,66.00
2022-10-20T20:36:28.126Z,65.90
2022-10-20T20:38:58.148Z,66.10
2022-10-20T20:41:30.846Z,66.10
2022-10-20T20:43:58.405Z,66.10
2022-10-20T20:46:29.226Z,66.10
2022-10-20T20:49:00.528Z,66.10
2022-10-20T20:51:33.898Z,66.10
2022-10-20T20:54:02.694Z,66.20
2022-10-20T20:56:29.598Z,66.20
2022-10-20T20:58:56.307Z,66.20
2022-10-20T21:01:33.960Z,66.30
2022-10-20T21:04:05.453Z,66.30
2022-10-20T21:06:49.397Z,66.30
2022-10-20T21:09:19.377Z,66.40
2022-10-20T21:11:46.093Z,66.30
2022-10-20T21:14:12.846Z,66.30
2022-10-20T21:16:39.647Z,66.40
2022-10-20T21:19:10.727Z,66.30
2022-10-20T21:21:44.420Z,66.40
2022-10-20T21:24:12.737Z,66.30
2022-10-20T21:26:40.611Z,66.40
2022-10-20T21:29:08.580Z,66.30
2022-10-20T21:31:36.305Z,66.30
2022-10-20T21:34:05.435Z,66.30
2022-10-20T21:36:35.315Z,66.30
2022-10-20T21:39:06.188Z,66.30
2022-10-20T21:41:35.878Z,66.30
2022-10-20T21:44:05.173Z,66.20
2022-10-20T21:46:39.705Z,66.20
2022-10-20T21:49:11.920Z,66.20
2022-10-20T21:51:43.365Z,66.90
2022-10-20T21:54:18.698Z,66.30
2022-10-20T21:56:47.033Z,66.20
2022-10-20T21:59:29.530Z,66.80
2022-10-20T22:01:59.744Z,66.20
2022-10-20T22:04:29.415Z,66.20
2022-10-20T22:06:57.192Z,66.00
2022-10-20T22:09:24.156Z,66.00
2022-10-20T22:11:55.371Z,66.00
2022-10-20T22:14:23.485Z,66.00
2022-10-20T22:16:50.406Z,65.90
2022-10-20T22:19:23.019Z,65.80
2022-10-20T22:21:52.734Z,65.80
2022-10-20T22:24:21.879Z,65.70
2022-10-20T22:26:51.570Z,65.60
2022-10-20T22:29:21.903Z,65.60
2022-10-20T22:31:49.017Z,65.60
2022-10-20T22:34:15.853Z,65.60
2022-10-20T22:36:44.331Z,65.60
2022-10-20T22:41:43.419Z,66.00
2022-10-20T22:44:11.043Z,65.40
2022-10-20T22:46:37.746Z,66.20
2022-10-20T22:49:04.664Z,66.20
2022-10-20T22:51:31.407Z,66.30
2022-10-20T22:53:58.981Z,66.40
2022-10-20T22:56:25.752Z,66.80
2022-10-20T22:58:53.895Z,66.90
2022-10-20T23:01:22.989Z,67.10
2022-10-20T23:03:50.106Z,67.20
2022-10-20T23:06:21.269Z,67.40
2022-10-20T23:08:52.603Z,67.60
2022-10-20T23:11:20.556Z,67.60
2022-10-20T23:13:48.187Z,67.80
2022-10-20T23:16:15.154Z,67.80
2022-10-20T23:18:42.611Z,68.00
2022-10-20T23:21:09.991Z,68.10
2022-10-20T23:23:37.565Z,68.20
2022-10-20T23:26:06.927Z,68.30
2022-10-20T23:28:35.335Z,68.40
2022-10-20T23:31:17.804Z,68.50
2022-10-20T23:33:46.896Z,68.80
2022-10-20T23:36:15.718Z,68.60
2022-10-20T23:38:43.665Z,68.80
2022-10-20T23:41:10.851Z,68.80
2022-10-20T23:43:37.606Z,69.00
2022-10-20T23:46:04.661Z,69.20
2022-10-20T23:48:31.412Z,69.40
2022-10-20T23:50:58.343Z,69.30
2022-10-20T23:53:25.612Z,69.50
2022-10-20T23:55:52.650Z,69.70
2022-10-20T23:58:23.165Z,70.10
